sensor_id;sensor_type;location;lat;lon;timestamp;pressure;altitude;pressure_sealevel;temperature;humidity
35551;BME280;21655;46.056;13.616;2023-07-29T00:01:58;100216.69;;;20.78;100.00
35551;BME280;21655;46.056;13.616;2023-07-29T00:04:23;100211.31;;;20.77;100.00
35551;BME280;21655;46.056;13.616;2023-07-29T00:06:49;100218.28;;;20.74;100.00
35551;BME280;21655;46.056;13.616;2023-07-29T00:09:14;100210.44;;;20.76;100.00
35551;BME280;21655;46.056;13.616;2023-07-29T00:11:39;100210.81;;;20.80;100.00
35551;BME280;21655;46.056;13.616;2023-07-29T00:14:05;100224.63;;;20.81;100.00
35551;BME280;21655;46.056;13.616;2023-07-29T00:16:30;100219.50;;;20.78;100.00
35551;BME280;21655;46.056;13.616;2023-07-29T00:18:56;100214.38;;;20.75;100.00
35551;BME280;21655;46.056;13.616;2023-07-29T00:21:21;100210.06;;;20.73;100.00
35551;BME280;21655;46.056;13.616;2023-07-29T00:23:47;100224.53;;;20.76;100.00
35551;BME280;21655;46.056;13.616;2023-07-29T00:26:12;100208.13;;;20.85;100.00
35551;BME280;21655;46.056;13.616;2023-07-29T00:28:38;100218.66;;;20.89;100.00
35551;BME280;21655;46.056;13.616;2023-07-29T00:31:03;100202.19;;;20.98;100.00
35551;BME280;21655;46.056;13.616;2023-07-29T00:33:28;100215.78;;;21.01;100.00
35551;BME280;21655;46.056;13.616;2023-07-29T00:35:54;100206.13;;;20.97;100.00
35551;BME280;21655;46.056;13.616;2023-07-29T00:38:19;100202.44;;;20.96;100.00
35551;BME280;21655;46.056;13.616;2023-07-29T00:40:45;100204.13;;;20.97;100.00
35551;BME280;21655;46.056;13.616;2023-07-29T00:43:10;100203.03;;;20.98;100.00
35551;BME280;21655;46.056;13.616;2023-07-29T00:45:36;100197.16;;;21.00;100.00
35551;BME280;21655;46.056;13.616;2023-07-29T00:48:03;100197.97;;;21.00;100.00
35551;BME280;21655;46.056;13.616;2023-07-29T00:50:29;100193.44;;;20.99;100.00
35551;BME280;21655;46.056;13.616;2023-07-29T00:52:56;100194.84;;;20.97;100.00
35551;BME280;21655;46.056;13.616;2023-07-29T00:55:22;100189.34;;;20.90;100.00
35551;BME280;21655;46.056;13.616;2023-07-29T00:57:48;100177.78;;;20.92;100.00
35551;BME280;21655;46.056;13.616;2023-07-29T01:00:17;100187.56;;;21.01;100.00
35551;BME280;21655;46.056;13.616;2023-07-29T01:02:43;100187.44;;;21.07;100.00
35551;BME280;21655;46.056;13.616;2023-07-29T01:05:12;100192.78;;;21.08;100.00
35551;BME280;21655;46.056;13.616;2023-07-29T01:13:00;100190.69;;;20.88;100.00
35551;BME280;21655;46.056;13.616;2023-07-29T01:18:01;100190.69;;;20.88;100.00
35551;BME280;21655;46.056;13.616;2023-07-29T01:20:29;100191.06;;;20.80;100.00
35551;BME280;21655;46.056;13.616;2023-07-29T01:22:57;100194.63;;;20.87;100.00
35551;BME280;21655;46.056;13.616;2023-07-29T01:25:23;100195.47;;;20.76;100.00
35551;BME280;21655;46.056;13.616;2023-07-29T01:27:49;100183.00;;;20.72;100.00
35551;BME280;21655;46.056;13.616;2023-07-29T01:30:17;100187.78;;;20.71;100.00
35551;BME280;21655;46.056;13.616;2023-07-29T01:35:33;100191.44;;;20.72;100.00
35551;BME280;21655;46.056;13.616;2023-07-29T01:38:13;100178.38;;;20.66;100.00
35551;BME280;21655;46.056;13.616;2023-07-29T01:40:40;100181.09;;;20.61;100.00
35551;BME280;21655;46.056;13.616;2023-07-29T01:43:06;100177.63;;;20.59;100.00
35551;BME280;21655;46.056;13.616;2023-07-29T01:45:33;100173.34;;;20.68;100.00
35551;BME280;21655;46.056;13.616;2023-07-29T01:48:06;100167.78;;;20.73;100.00
35551;BME280;21655;46.056;13.616;2023-07-29T01:50:33;100160.44;;;20.72;100.00
35551;BME280;21655;46.056;13.616;2023-07-29T01:52:58;100164.47;;;20.76;100.00
35551;BME280;21655;46.056;13.616;2023-07-29T01:55:24;100162.75;;;20.75;100.00
35551;BME280;21655;46.056;13.616;2023-07-29T01:57:50;100165.25;;;20.71;100.00
35551;BME280;21655;46.056;13.616;2023-07-29T02:00:16;100158.00;;;20.75;100.00
35551;BME280;21655;46.056;13.616;2023-07-29T02:02:42;100159.25;;;20.68;100.00
35551;BME280;21655;46.056;13.616;2023-07-29T02:05:07;100155.50;;;20.51;100.00
35551;BME280;21655;46.056;13.616;2023-07-29T02:07:33;100166.78;;;20.51;100.00
35551;BME280;21655;46.056;13.616;2023-07-29T02:09:58;100184.28;;;20.53;100.00
35551;BME280;21655;46.056;13.616;2023-07-29T02:12:24;100187.47;;;20.56;100.00
35551;BME280;21655;46.056;13.616;2023-07-29T02:14:49;100184.38;;;20.58;100.00
35551;BME280;21655;46.056;13.616;2023-07-29T02:17:15;100190.53;;;20.55;100.00
35551;BME280;21655;46.056;13.616;2023-07-29T02:19:40;100187.59;;;20.50;100.00
35551;BME280;21655;46.056;13.616;2023-07-29T02:22:06;100175.34;;;20.44;100.00
35551;BME280;21655;46.056;13.616;2023-07-29T02:24:31;100166.53;;;20.41;100.00
35551;BME280;21655;46.056;13.616;2023-07-29T02:26:56;100174.38;;;20.39;100.00
35551;BME280;21655;46.056;13.616;2023-07-29T02:29:22;100186.53;;;20.39;100.00
35551;BME280;21655;46.056;13.616;2023-07-29T02:31:47;100198.41;;;20.41;100.00
35551;BME280;21655;46.056;13.616;2023-07-29T02:34:13;100200.72;;;20.44;100.00
35551;BME280;21655;46.056;13.616;2023-07-29T02:36:39;100201.59;;;20.45;100.00
35551;BME280;21655;46.056;13.616;2023-07-29T02:39:04;100206.13;;;20.46;100.00
35551;BME280;21655;46.056;13.616;2023-07-29T02:41:30;100212.72;;;20.40;100.00
35551;BME280;21655;46.056;13.616;2023-07-29T02:43:55;100211.50;;;20.36;100.00
35551;BME280;21655;46.056;13.616;2023-07-29T02:46:20;100205.50;;;20.32;100.00
35551;BME280;21655;46.056;13.616;2023-07-29T02:48:46;100215.31;;;20.30;100.00
35551;BME280;21655;46.056;13.616;2023-07-29T02:51:11;100208.09;;;20.22;100.00
35551;BME280;21655;46.056;13.616;2023-07-29T02:53:37;100222.66;;;20.31;100.00
35551;BME280;21655;46.056;13.616;2023-07-29T02:56:03;100215.06;;;20.31;100.00
35551;BME280;21655;46.056;13.616;2023-07-29T02:58:29;100214.81;;;20.33;100.00
35551;BME280;21655;46.056;13.616;2023-07-29T03:01:02;100198.41;;;20.30;100.00
35551;BME280;21655;46.056;13.616;2023-07-29T03:03:28;100199.03;;;20.32;100.00
35551;BME280;21655;46.056;13.616;2023-07-29T03:05:59;100211.28;;;20.37;100.00
35551;BME280;21655;46.056;13.616;2023-07-29T03:08:24;100220.31;;;20.39;100.00
35551;BME280;21655;46.056;13.616;2023-07-29T03:10:50;100215.91;;;20.43;100.00
35551;BME280;21655;46.056;13.616;2023-07-29T03:13:15;100209.56;;;20.36;100.00
35551;BME280;21655;46.056;13.616;2023-07-29T03:15:40;100199.88;;;20.32;100.00
35551;BME280;21655;46.056;13.616;2023-07-29T03:18:06;100215.94;;;20.32;100.00
35551;BME280;21655;46.056;13.616;2023-07-29T03:20:31;100220.09;;;20.29;100.00
35551;BME280;21655;46.056;13.616;2023-07-29T03:22:57;100218.50;;;20.22;100.00
35551;BME280;21655;46.056;13.616;2023-07-29T03:25:22;100210.53;;;20.19;100.00
35551;BME280;21655;46.056;13.616;2023-07-29T03:27:48;100216.19;;;20.19;100.00
35551;BME280;21655;46.056;13.616;2023-07-29T03:30:14;100224.41;;;20.20;100.00
35551;BME280;21655;46.056;13.616;2023-07-29T03:32:43;100223.63;;;20.25;100.00
35551;BME280;21655;46.056;13.616;2023-07-29T03:35:10;100230.75;;;20.27;100.00
35551;BME280;21655;46.056;13.616;2023-07-29T03:37:36;100228.91;;;20.21;100.00
35551;BME280;21655;46.056;13.616;2023-07-29T03:40:02;100226.34;;;20.20;100.00
35551;BME280;21655;46.056;13.616;2023-07-29T03:42:28;100233.44;;;20.22;100.00
35551;BME280;21655;46.056;13.616;2023-07-29T03:44:53;100227.81;;;20.22;100.00
35551;BME280;21655;46.056;13.616;2023-07-29T03:47:19;100231.63;;;20.28;100.00
35551;BME280;21655;46.056;13.616;2023-07-29T03:49:44;100230.84;;;20.32;100.00
35551;BME280;21655;46.056;13.616;2023-07-29T03:52:09;100231.97;;;20.31;100.00
35551;BME280;21655;46.056;13.616;2023-07-29T03:54:35;100240.28;;;20.26;100.00
35551;BME280;21655;46.056;13.616;2023-07-29T03:57:01;100246.91;;;20.32;100.00
35551;BME280;21655;46.056;13.616;2023-07-29T03:59:26;100247.88;;;20.37;100.00
35551;BME280;21655;46.056;13.616;2023-07-29T04:01:52;100251.81;;;20.36;100.00
35551;BME280;21655;46.056;13.616;2023-07-29T04:04:17;100247.75;;;20.32;100.00
35551;BME280;21655;46.056;13.616;2023-07-29T04:06:42;100250.84;;;20.31;100.00
35551;BME280;21655;46.056;13.616;2023-07-29T04:09:08;100245.06;;;20.26;100.00
35551;BME280;21655;46.056;13.616;2023-07-29T04:11:34;100246.66;;;20.22;100.00
35551;BME280;21655;46.056;13.616;2023-07-29T04:13:59;100253.41;;;20.21;100.00
35551;BME280;21655;46.056;13.616;2023-07-29T04:16:25;100257.56;;;20.18;100.00
35551;BME280;21655;46.056;13.616;2023-07-29T04:18:51;100254.00;;;20.11;100.00
35551;BME280;21655;46.056;13.616;2023-07-29T04:21:16;100251.69;;;20.08;100.00
35551;BME280;21655;46.056;13.616;2023-07-29T04:23:42;100256.00;;;20.11;100.00
35551;BME280;21655;46.056;13.616;2023-07-29T04:26:07;100253.78;;;20.13;100.00
35551;BME280;21655;46.056;13.616;2023-07-29T04:28:33;100253.03;;;20.17;100.00
35551;BME280;21655;46.056;13.616;2023-07-29T04:30:58;100247.53;;;20.22;100.00
35551;BME280;21655;46.056;13.616;2023-07-29T04:33:24;100237.38;;;20.21;100.00
35551;BME280;21655;46.056;13.616;2023-07-29T04:35:50;100240.53;;;20.25;100.00
35551;BME280;21655;46.056;13.616;2023-07-29T04:38:15;100236.00;;;20.24;100.00
35551;BME280;21655;46.056;13.616;2023-07-29T04:40:41;100237.25;;;20.28;100.00
35551;BME280;21655;46.056;13.616;2023-07-29T04:43:06;100241.88;;;20.34;100.00
35551;BME280;21655;46.056;13.616;2023-07-29T04:45:32;100247.16;;;20.30;100.00
35551;BME280;21655;46.056;13.616;2023-07-29T04:47:58;100240.91;;;20.28;100.00
35551;BME280;21655;46.056;13.616;2023-07-29T04:50:24;100248.13;;;20.36;100.00
35551;BME280;21655;46.056;13.616;2023-07-29T04:52:49;100253.53;;;20.37;100.00
35551;BME280;21655;46.056;13.616;2023-07-29T04:55:15;100250.41;;;20.50;100.00
35551;BME280;21655;46.056;13.616;2023-07-29T04:57:40;100252.88;;;20.58;100.00
35551;BME280;21655;46.056;13.616;2023-07-29T05:00:06;100246.97;;;20.71;100.00
35551;BME280;21655;46.056;13.616;2023-07-29T05:02:32;100258.75;;;20.68;100.00
35551;BME280;21655;46.056;13.616;2023-07-29T05:04:57;100247.59;;;20.73;100.00
35551;BME280;21655;46.056;13.616;2023-07-29T05:07:23;100252.56;;;20.83;100.00
35551;BME280;21655;46.056;13.616;2023-07-29T05:09:48;100244.50;;;21.25;100.00
35551;BME280;21655;46.056;13.616;2023-07-29T05:12:14;100238.94;;;21.58;100.00
35551;BME280;21655;46.056;13.616;2023-07-29T05:14:39;100240.75;;;21.81;100.00
35551;BME280;21655;46.056;13.616;2023-07-29T05:17:05;100242.13;;;22.11;100.00
35551;BME280;21655;46.056;13.616;2023-07-29T05:19:31;100242.38;;;22.43;100.00
35551;BME280;21655;46.056;13.616;2023-07-29T05:21:56;100230.31;;;22.69;100.00
35551;BME280;21655;46.056;13.616;2023-07-29T05:24:23;100246.19;;;22.91;100.00
35551;BME280;21655;46.056;13.616;2023-07-29T05:26:48;100241.91;;;23.10;100.00
35551;BME280;21655;46.056;13.616;2023-07-29T05:29:14;100245.56;;;23.10;100.00
35551;BME280;21655;46.056;13.616;2023-07-29T05:31:39;100244.47;;;23.33;100.00
35551;BME280;21655;46.056;13.616;2023-07-29T05:34:05;100246.50;;;23.37;100.00
35551;BME280;21655;46.056;13.616;2023-07-29T05:36:30;100244.00;;;23.67;100.00
35551;BME280;21655;46.056;13.616;2023-07-29T05:38:56;100241.78;;;24.01;100.00
35551;BME280;21655;46.056;13.616;2023-07-29T05:41:21;100252.97;;;24.17;100.00
35551;BME280;21655;46.056;13.616;2023-07-29T05:43:47;100243.47;;;24.33;100.00
35551;BME280;21655;46.056;13.616;2023-07-29T05:46:12;100233.88;;;24.39;100.00
35551;BME280;21655;46.056;13.616;2023-07-29T05:48:38;100233.31;;;24.84;100.00
35551;BME280;21655;46.056;13.616;2023-07-29T05:51:03;100241.06;;;25.03;100.00
35551;BME280;21655;46.056;13.616;2023-07-29T05:53:31;100240.41;;;25.37;100.00
35551;BME280;21655;46.056;13.616;2023-07-29T05:55:56;100228.44;;;25.35;100.00
35551;BME280;21655;46.056;13.616;2023-07-29T05:58:22;100227.03;;;25.43;100.00
35551;BME280;21655;46.056;13.616;2023-07-29T06:00:47;100228.59;;;25.90;100.00
35551;BME280;21655;46.056;13.616;2023-07-29T06:03:12;100234.25;;;26.15;100.00
35551;BME280;21655;46.056;13.616;2023-07-29T06:05:39;100226.56;;;26.36;100.00
35551;BME280;21655;46.056;13.616;2023-07-29T06:08:04;100225.13;;;26.43;100.00
35551;BME280;21655;46.056;13.616;2023-07-29T06:10:30;100232.84;;;26.18;100.00
35551;BME280;21655;46.056;13.616;2023-07-29T06:12:55;100233.44;;;26.15;100.00
35551;BME280;21655;46.056;13.616;2023-07-29T06:15:20;100238.53;;;25.88;100.00
35551;BME280;21655;46.056;13.616;2023-07-29T06:17:48;100243.19;;;25.32;100.00
35551;BME280;21655;46.056;13.616;2023-07-29T06:20:13;100249.25;;;24.95;100.00
35551;BME280;21655;46.056;13.616;2023-07-29T06:22:39;100251.88;;;24.23;100.00
35551;BME280;21655;46.056;13.616;2023-07-29T06:25:06;100261.63;;;23.74;100.00
35551;BME280;21655;46.056;13.616;2023-07-29T06:27:31;100259.00;;;23.94;100.00
35551;BME280;21655;46.056;13.616;2023-07-29T06:29:56;100249.75;;;24.77;100.00
35551;BME280;21655;46.056;13.616;2023-07-29T06:32:22;100234.19;;;25.65;100.00
35551;BME280;21655;46.056;13.616;2023-07-29T06:34:47;100229.72;;;26.49;100.00
35551;BME280;21655;46.056;13.616;2023-07-29T06:37:13;100227.59;;;27.00;100.00
35551;BME280;21655;46.056;13.616;2023-07-29T06:39:38;100228.00;;;27.36;100.00
35551;BME280;21655;46.056;13.616;2023-07-29T06:42:04;100223.53;;;28.12;100.00
35551;BME280;21655;46.056;13.616;2023-07-29T06:44:29;100215.31;;;28.39;100.00
35551;BME280;21655;46.056;13.616;2023-07-29T06:46:54;100222.47;;;27.60;100.00
35551;BME280;21655;46.056;13.616;2023-07-29T06:49:20;100220.44;;;27.12;100.00
35551;BME280;21655;46.056;13.616;2023-07-29T06:51:45;100230.34;;;27.29;100.00
35551;BME280;21655;46.056;13.616;2023-07-29T06:54:11;100223.97;;;27.91;100.00
35551;BME280;21655;46.056;13.616;2023-07-29T06:56:36;100225.63;;;28.35;100.00
35551;BME280;21655;46.056;13.616;2023-07-29T06:59:02;100221.91;;;28.63;100.00
35551;BME280;21655;46.056;13.616;2023-07-29T07:01:27;100221.84;;;28.97;100.00
35551;BME280;21655;46.056;13.616;2023-07-29T07:03:53;100226.50;;;28.88;100.00
35551;BME280;21655;46.056;13.616;2023-07-29T07:06:21;100230.53;;;28.82;100.00
35551;BME280;21655;46.056;13.616;2023-07-29T07:08:47;100225.56;;;28.97;100.00
35551;BME280;21655;46.056;13.616;2023-07-29T07:11:13;100230.38;;;29.43;100.00
35551;BME280;21655;46.056;13.616;2023-07-29T07:13:38;100221.72;;;29.30;100.00
35551;BME280;21655;46.056;13.616;2023-07-29T07:16:04;100215.22;;;29.66;100.00
35551;BME280;21655;46.056;13.616;2023-07-29T07:18:29;100211.00;;;30.14;100.00
35551;BME280;21655;46.056;13.616;2023-07-29T07:20:55;100208.47;;;30.45;100.00
35551;BME280;21655;46.056;13.616;2023-07-29T07:23:20;100211.56;;;30.94;100.00
35551;BME280;21655;46.056;13.616;2023-07-29T07:25:46;100202.13;;;31.07;100.00
35551;BME280;21655;46.056;13.616;2023-07-29T07:28:11;100198.94;;;30.95;100.00
35551;BME280;21655;46.056;13.616;2023-07-29T07:30:40;100212.84;;;31.41;100.00
35551;BME280;21655;46.056;13.616;2023-07-29T07:33:08;100201.38;;;31.41;100.00
35551;BME280;21655;46.056;13.616;2023-07-29T07:35:34;100202.31;;;31.50;100.00
35551;BME280;21655;46.056;13.616;2023-07-29T07:37:59;100203.41;;;31.28;100.00
35551;BME280;21655;46.056;13.616;2023-07-29T07:40:27;100200.44;;;31.19;100.00
35551;BME280;21655;46.056;13.616;2023-07-29T07:42:53;100193.63;;;31.42;100.00
35551;BME280;21655;46.056;13.616;2023-07-29T07:45:18;100188.94;;;31.95;100.00
35551;BME280;21655;46.056;13.616;2023-07-29T07:47:44;100201.38;;;32.48;100.00
35551;BME280;21655;46.056;13.616;2023-07-29T07:50:09;100187.25;;;32.16;100.00
35551;BME280;21655;46.056;13.616;2023-07-29T07:52:35;100192.13;;;31.93;100.00
35551;BME280;21655;46.056;13.616;2023-07-29T07:55:00;100193.50;;;32.62;100.00
35551;BME280;21655;46.056;13.616;2023-07-29T07:57:26;100195.53;;;32.92;100.00
35551;BME280;21655;46.056;13.616;2023-07-29T07:59:51;100201.44;;;32.34;100.00
35551;BME280;21655;46.056;13.616;2023-07-29T08:02:18;100194.91;;;32.42;100.00
35551;BME280;21655;46.056;13.616;2023-07-29T08:04:43;100189.88;;;32.26;100.00
35551;BME280;21655;46.056;13.616;2023-07-29T08:07:08;100181.06;;;32.44;100.00
35551;BME280;21655;46.056;13.616;2023-07-29T08:09:34;100195.94;;;32.46;100.00
35551;BME280;21655;46.056;13.616;2023-07-29T08:11:59;100188.53;;;32.76;100.00
35551;BME280;21655;46.056;13.616;2023-07-29T08:14:25;100184.13;;;32.48;100.00
35551;BME280;21655;46.056;13.616;2023-07-29T08:16:51;100175.28;;;32.36;100.00
35551;BME280;21655;46.056;13.616;2023-07-29T08:19:17;100179.00;;;33.36;100.00
35551;BME280;21655;46.056;13.616;2023-07-29T08:21:42;100177.69;;;33.59;100.00
35551;BME280;21655;46.056;13.616;2023-07-29T08:24:07;100177.66;;;33.34;99.56
35551;BME280;21655;46.056;13.616;2023-07-29T08:26:33;100168.97;;;34.23;95.34
35551;BME280;21655;46.056;13.616;2023-07-29T08:28:58;100166.19;;;34.61;97.07
35551;BME280;21655;46.056;13.616;2023-07-29T08:31:24;100162.44;;;34.77;86.88
35551;BME280;21655;46.056;13.616;2023-07-29T08:33:49;100171.78;;;34.57;85.04
35551;BME280;21655;46.056;13.616;2023-07-29T08:36:15;100167.38;;;34.51;84.59
35551;BME280;21655;46.056;13.616;2023-07-29T08:38:40;100163.66;;;34.42;86.50
35551;BME280;21655;46.056;13.616;2023-07-29T08:44:21;100175.16;;;34.76;84.42
35551;BME280;21655;46.056;13.616;2023-07-29T08:46:48;100171.00;;;34.31;83.81
35551;BME280;21655;46.056;13.616;2023-07-29T08:49:14;100177.06;;;34.38;94.69
35551;BME280;21655;46.056;13.616;2023-07-29T08:51:42;100168.13;;;33.80;94.21
35551;BME280;21655;46.056;13.616;2023-07-29T08:54:10;100161.97;;;35.04;90.46
35551;BME280;21655;46.056;13.616;2023-07-29T08:56:36;100157.28;;;35.58;74.66
35551;BME280;21655;46.056;13.616;2023-07-29T08:59:02;100163.31;;;36.34;69.98
35551;BME280;21655;46.056;13.616;2023-07-29T09:01:29;100161.91;;;36.20;70.92
35551;BME280;21655;46.056;13.616;2023-07-29T09:03:56;100154.72;;;36.05;67.45
35551;BME280;21655;46.056;13.616;2023-07-29T09:06:21;100148.06;;;36.05;71.72
35551;BME280;21655;46.056;13.616;2023-07-29T09:08:50;100146.19;;;36.62;72.71
35551;BME280;21655;46.056;13.616;2023-07-29T09:11:16;100143.63;;;37.17;65.73
35551;BME280;21655;46.056;13.616;2023-07-29T09:13:43;100141.91;;;36.80;71.22
35551;BME280;21655;46.056;13.616;2023-07-29T09:16:09;100133.81;;;36.73;66.79
35551;BME280;21655;46.056;13.616;2023-07-29T09:18:34;100139.16;;;37.31;70.52
35551;BME280;21655;46.056;13.616;2023-07-29T09:21:00;100144.50;;;38.04;61.78
35551;BME280;21655;46.056;13.616;2023-07-29T09:23:26;100154.63;;;37.59;59.28
35551;BME280;21655;46.056;13.616;2023-07-29T09:26:03;100147.16;;;37.46;61.76
35551;BME280;21655;46.056;13.616;2023-07-29T09:28:36;100149.91;;;37.90;66.67
35551;BME280;21655;46.056;13.616;2023-07-29T09:31:02;100138.94;;;37.24;65.51
35551;BME280;21655;46.056;13.616;2023-07-29T09:33:29;100143.41;;;37.10;68.49
35551;BME280;21655;46.056;13.616;2023-07-29T09:35:54;100134.88;;;38.00;68.19
35551;BME280;21655;46.056;13.616;2023-07-29T09:38:28;100135.66;;;37.38;66.92
35551;BME280;21655;46.056;13.616;2023-07-29T09:40:55;100132.41;;;37.63;63.14
35551;BME280;21655;46.056;13.616;2023-07-29T09:43:26;100133.31;;;38.03;61.66
35551;BME280;21655;46.056;13.616;2023-07-29T09:45:53;100142.44;;;37.30;64.78
35551;BME280;21655;46.056;13.616;2023-07-29T09:48:22;100135.00;;;36.72;61.47
35551;BME280;21655;46.056;13.616;2023-07-29T09:50:47;100130.63;;;36.01;63.57
35551;BME280;21655;46.056;13.616;2023-07-29T09:53:14;100130.13;;;36.20;63.15
35551;BME280;21655;46.056;13.616;2023-07-29T09:55:39;100133.41;;;37.07;61.42
35551;BME280;21655;46.056;13.616;2023-07-29T09:58:05;100130.25;;;37.24;56.90
35551;BME280;21655;46.056;13.616;2023-07-29T10:00:33;100136.53;;;36.25;62.84
35551;BME280;21655;46.056;13.616;2023-07-29T10:02:59;100133.94;;;35.13;67.58
35551;BME280;21655;46.056;13.616;2023-07-29T10:05:26;100137.25;;;33.64;89.25
35551;BME280;21655;46.056;13.616;2023-07-29T10:07:52;100139.94;;;32.13;100.00
35551;BME280;21655;46.056;13.616;2023-07-29T10:10:19;100142.81;;;31.69;100.00
35551;BME280;21655;46.056;13.616;2023-07-29T10:12:45;100140.56;;;31.80;100.00
35551;BME280;21655;46.056;13.616;2023-07-29T10:15:11;100146.25;;;32.37;98.91
35551;BME280;21655;46.056;13.616;2023-07-29T10:17:38;100140.16;;;32.69;98.50
35551;BME280;21655;46.056;13.616;2023-07-29T10:20:05;100146.34;;;32.54;97.51
35551;BME280;21655;46.056;13.616;2023-07-29T10:22:42;100135.34;;;32.26;100.00
35551;BME280;21655;46.056;13.616;2023-07-29T10:25:10;100141.13;;;32.95;82.03
35551;BME280;21655;46.056;13.616;2023-07-29T10:27:43;100150.13;;;33.11;71.43
35551;BME280;21655;46.056;13.616;2023-07-29T10:30:10;100137.25;;;34.15;75.41
35551;BME280;21655;46.056;13.616;2023-07-29T10:32:36;100129.72;;;34.56;72.24
35551;BME280;21655;46.056;13.616;2023-07-29T10:35:03;100127.97;;;34.81;69.04
35551;BME280;21655;46.056;13.616;2023-07-29T10:37:29;100124.19;;;34.43;83.98
35551;BME280;21655;46.056;13.616;2023-07-29T10:39:55;100131.09;;;35.34;73.39
35551;BME280;21655;46.056;13.616;2023-07-29T10:42:21;100130.50;;;35.49;68.34
35551;BME280;21655;46.056;13.616;2023-07-29T10:44:49;100129.38;;;35.12;69.71
35551;BME280;21655;46.056;13.616;2023-07-29T10:47:16;100124.69;;;34.99;72.47
35551;BME280;21655;46.056;13.616;2023-07-29T10:49:43;100117.47;;;35.71;66.38
35551;BME280;21655;46.056;13.616;2023-07-29T10:52:08;100124.06;;;35.72;60.93
35551;BME280;21655;46.056;13.616;2023-07-29T10:54:47;100124.84;;;35.32;58.96
35551;BME280;21655;46.056;13.616;2023-07-29T10:57:14;100120.25;;;34.56;64.91
35551;BME280;21655;46.056;13.616;2023-07-29T10:59:55;100120.16;;;35.27;63.21
35551;BME280;21655;46.056;13.616;2023-07-29T11:02:28;100117.97;;;36.06;59.68
35551;BME280;21655;46.056;13.616;2023-07-29T11:04:54;100106.88;;;36.49;62.22
35551;BME280;21655;46.056;13.616;2023-07-29T11:07:21;100115.09;;;36.26;54.63
35551;BME280;21655;46.056;13.616;2023-07-29T11:09:58;100102.81;;;35.76;57.47
35551;BME280;21655;46.056;13.616;2023-07-29T11:15:22;100115.19;;;33.26;64.23
35551;BME280;21655;46.056;13.616;2023-07-29T11:17:57;100113.22;;;34.02;60.62
35551;BME280;21655;46.056;13.616;2023-07-29T11:20:28;100102.38;;;34.25;62.85
35551;BME280;21655;46.056;13.616;2023-07-29T11:22:55;100110.69;;;34.01;68.32
35551;BME280;21655;46.056;13.616;2023-07-29T11:25:22;100095.75;;;34.24;68.55
35551;BME280;21655;46.056;13.616;2023-07-29T11:27:50;100097.50;;;34.63;66.65
35551;BME280;21655;46.056;13.616;2023-07-29T11:30:16;100104.41;;;34.24;72.95
35551;BME280;21655;46.056;13.616;2023-07-29T11:32:44;100089.34;;;33.42;72.62
35551;BME280;21655;46.056;13.616;2023-07-29T11:35:15;100088.66;;;33.20;85.09
35551;BME280;21655;46.056;13.616;2023-07-29T11:37:43;100095.81;;;32.62;98.42
35551;BME280;21655;46.056;13.616;2023-07-29T11:40:09;100102.72;;;32.52;95.71
35551;BME280;21655;46.056;13.616;2023-07-29T11:42:37;100091.34;;;32.17;93.03
35551;BME280;21655;46.056;13.616;2023-07-29T11:45:04;100089.06;;;31.61;100.00
35551;BME280;21655;46.056;13.616;2023-07-29T11:47:32;100085.31;;;31.61;100.00
35551;BME280;21655;46.056;13.616;2023-07-29T11:50:01;100088.03;;;32.01;100.00
35551;BME280;21655;46.056;13.616;2023-07-29T11:52:27;100094.84;;;31.48;100.00
35551;BME280;21655;46.056;13.616;2023-07-29T11:54:53;100092.50;;;31.50;100.00
35551;BME280;21655;46.056;13.616;2023-07-29T11:57:18;100080.25;;;31.58;100.00
35551;BME280;21655;46.056;13.616;2023-07-29T11:59:46;100089.22;;;31.43;100.00
35551;BME280;21655;46.056;13.616;2023-07-29T12:02:16;100085.38;;;31.47;100.00
35551;BME280;21655;46.056;13.616;2023-07-29T12:04:44;100086.50;;;31.38;100.00
35551;BME280;21655;46.056;13.616;2023-07-29T12:07:13;100082.63;;;30.94;100.00
35551;BME280;21655;46.056;13.616;2023-07-29T12:09:39;100074.22;;;30.97;100.00
35551;BME280;21655;46.056;13.616;2023-07-29T12:12:05;100067.75;;;31.05;100.00
35551;BME280;21655;46.056;13.616;2023-07-29T12:14:32;100060.75;;;31.25;100.00
35551;BME280;21655;46.056;13.616;2023-07-29T12:17:02;100066.25;;;31.56;100.00
35551;BME280;21655;46.056;13.616;2023-07-29T12:19:36;100069.13;;;31.56;100.00
35551;BME280;21655;46.056;13.616;2023-07-29T12:22:05;100063.94;;;31.45;100.00
35551;BME280;21655;46.056;13.616;2023-07-29T12:24:31;100065.69;;;31.33;100.00
35551;BME280;21655;46.056;13.616;2023-07-29T12:26:58;100061.84;;;31.37;100.00
35551;BME280;21655;46.056;13.616;2023-07-29T12:29:24;100066.81;;;31.45;100.00
35551;BME280;21655;46.056;13.616;2023-07-29T12:31:57;100060.69;;;31.38;100.00
35551;BME280;21655;46.056;13.616;2023-07-29T12:34:25;100053.72;;;31.52;100.00
35551;BME280;21655;46.056;13.616;2023-07-29T12:36:51;100039.44;;;31.61;100.00
35551;BME280;21655;46.056;13.616;2023-07-29T12:39:18;100052.19;;;31.68;100.00
35551;BME280;21655;46.056;13.616;2023-07-29T12:41:44;100046.19;;;31.56;100.00
35551;BME280;21655;46.056;13.616;2023-07-29T12:44:10;100050.38;;;31.37;100.00
35551;BME280;21655;46.056;13.616;2023-07-29T12:46:35;100048.69;;;31.36;100.00